sensor_id;sensor_type;location;lat;lon;timestamp;pressure;altitude;pressure_sealevel;temperature;humidity
11198;BME280;5655;48.744;9.162;2023-02-28T00:00:33;96718.84;;;0.09;100.00
11198;BME280;5655;48.744;9.162;2023-02-28T00:02:59;96728.25;;;-0.22;100.00
11198;BME280;5655;48.744;9.162;2023-02-28T00:05:26;96724.63;;;-0.08;100.00
11198;BME280;5655;48.744;9.162;2023-02-28T00:07:51;96727.97;;;-0.39;100.00
11198;BME280;5655;48.744;9.162;2023-02-28T00:10:22;96724.91;;;-0.47;100.00
11198;BME280;5655;48.744;9.162;2023-02-28T00:12:49;96725.44;;;-0.68;100.00
11198;BME280;5655;48.744;9.162;2023-02-28T00:15:16;96721.63;;;-0.57;100.00
11198;BME280;5655;48.744;9.162;2023-02-28T00:17:42;96719.38;;;-0.45;100.00
11198;BME280;5655;48.744;9.162;2023-02-28T00:20:08;96725.63;;;-0.41;100.00
11198;BME280;5655;48.744;9.162;2023-02-28T00:22:40;96711.63;;;-0.36;100.00
11198;BME280;5655;48.744;9.162;2023-02-28T00:25:07;96727.81;;;-0.48;100.00
11198;BME280;5655;48.744;9.162;2023-02-28T00:27:35;96718.38;;;-0.73;100.00
11198;BME280;5655;48.744;9.162;2023-02-28T00:30:00;96723.09;;;-0.51;100.00
11198;BME280;5655;48.744;9.162;2023-02-28T00:32:26;96723.31;;;-0.66;100.00
11198;BME280;5655;48.744;9.162;2023-02-28T00:34:51;96722.44;;;-1.04;100.00
11198;BME280;5655;48.744;9.162;2023-02-28T00:37:16;96721.63;;;-0.81;100.00
11198;BME280;5655;48.744;9.162;2023-02-28T00:39:42;96722.53;;;-0.67;100.00
11198;BME280;5655;48.744;9.162;2023-02-28T00:42:07;96723.88;;;-0.93;100.00
11198;BME280;5655;48.744;9.162;2023-02-28T00:44:33;96726.22;;;-0.68;100.00
11198;BME280;5655;48.744;9.162;2023-02-28T00:46:59;96723.25;;;-0.85;100.00
11198;BME280;5655;48.744;9.162;2023-02-28T00:49:26;96721.97;;;-0.64;100.00
11198;BME280;5655;48.744;9.162;2023-02-28T00:51:52;96718.00;;;-0.85;100.00
11198;BME280;5655;48.744;9.162;2023-02-28T00:54:18;96718.28;;;-0.63;100.00
11198;BME280;5655;48.744;9.162;2023-02-28T00:56:44;96718.28;;;-0.63;100.00
11198;BME280;5655;48.744;9.162;2023-02-28T00:59:16;96722.19;;;-0.41;100.00
11198;BME280;5655;48.744;9.162;2023-02-28T01:01:42;96722.22;;;-0.84;100.00
11198;BME280;5655;48.744;9.162;2023-02-28T01:04:08;96722.69;;;-0.82;100.00
11198;BME280;5655;48.744;9.162;2023-02-28T01:06:34;96718.94;;;-0.76;100.00
11198;BME280;5655;48.744;9.162;2023-02-28T01:09:00;96724.44;;;-0.96;100.00
11198;BME280;5655;48.744;9.162;2023-02-28T01:11:25;96718.28;;;-1.10;100.00
11198;BME280;5655;48.744;9.162;2023-02-28T01:13:51;96712.09;;;-0.96;100.00
11198;BME280;5655;48.744;9.162;2023-02-28T01:16:16;96717.56;;;-0.92;100.00
11198;BME280;5655;48.744;9.162;2023-02-28T01:18:42;96714.06;;;-0.82;100.00
11198;BME280;5655;48.744;9.162;2023-02-28T01:21:11;96714.69;;;-0.72;100.00
11198;BME280;5655;48.744;9.162;2023-02-28T01:23:38;96705.91;;;-1.05;100.00
11198;BME280;5655;48.744;9.162;2023-02-28T01:26:06;96716.69;;;-0.64;100.00
11198;BME280;5655;48.744;9.162;2023-02-28T01:28:31;96711.81;;;-0.94;100.00
11198;BME280;5655;48.744;9.162;2023-02-28T01:30:57;96709.22;;;-0.75;100.00
11198;BME280;5655;48.744;9.162;2023-02-28T01:33:22;96710.81;;;-0.98;100.00
11198;BME280;5655;48.744;9.162;2023-02-28T01:35:48;96700.63;;;-0.81;100.00
11198;BME280;5655;48.744;9.162;2023-02-28T01:38:13;96699.00;;;-1.24;100.00
11198;BME280;5655;48.744;9.162;2023-02-28T01:40:39;96715.34;;;-1.04;100.00
11198;BME280;5655;48.744;9.162;2023-02-28T01:43:17;96712.44;;;-0.60;100.00
11198;BME280;5655;48.744;9.162;2023-02-28T01:45:44;96703.97;;;-1.23;100.00
11198;BME280;5655;48.744;9.162;2023-02-28T01:48:09;96709.69;;;-0.92;100.00
11198;BME280;5655;48.744;9.162;2023-02-28T01:50:37;96707.00;;;-0.87;100.00
11198;BME280;5655;48.744;9.162;2023-02-28T01:53:06;96703.94;;;-0.94;100.00
11198;BME280;5655;48.744;9.162;2023-02-28T01:55:32;96699.00;;;-1.24;100.00
11198;BME280;5655;48.744;9.162;2023-02-28T01:58:00;96694.66;;;-1.10;100.00
11198;BME280;5655;48.744;9.162;2023-02-28T02:00:28;96697.63;;;-1.17;100.00
11198;BME280;5655;48.744;9.162;2023-02-28T02:03:00;96686.13;;;-1.21;100.00
11198;BME280;5655;48.744;9.162;2023-02-28T02:05:30;96696.91;;;-1.22;100.00
11198;BME280;5655;48.744;9.162;2023-02-28T02:08:01;96684.88;;;-1.05;100.00
11198;BME280;5655;48.744;9.162;2023-02-28T02:10:41;96688.56;;;-1.29;100.00
11198;BME280;5655;48.744;9.162;2023-02-28T02:15:43;96684.19;;;-1.15;100.00
11198;BME280;5655;48.744;9.162;2023-02-28T02:18:43;96677.59;;;-0.89;100.00
11198;BME280;5655;48.744;9.162;2023-02-28T02:32:01;96660.25;;;-1.09;100.00
11198;BME280;5655;48.744;9.162;2023-02-28T02:37:24;96673.41;;;-1.38;100.00
11198;BME280;5655;48.744;9.162;2023-02-28T02:42:55;96664.44;;;-1.31;100.00
11198;BME280;5655;48.744;9.162;2023-02-28T02:45:26;96670.03;;;-1.14;100.00
11198;BME280;5655;48.744;9.162;2023-02-28T02:47:56;96667.81;;;-1.07;100.00
11198;BME280;5655;48.744;9.162;2023-02-28T02:50:33;96668.72;;;-0.93;100.00
11198;BME280;5655;48.744;9.162;2023-02-28T02:53:02;96673.94;;;-1.35;100.00
11198;BME280;5655;48.744;9.162;2023-02-28T02:55:29;96677.94;;;-1.19;100.00
11198;BME280;5655;48.744;9.162;2023-02-28T02:58:00;96661.19;;;-1.23;100.00
11198;BME280;5655;48.744;9.162;2023-02-28T03:00:35;96667.78;;;-1.02;100.00
11198;BME280;5655;48.744;9.162;2023-02-28T03:03:02;96664.03;;;-0.96;100.00
11198;BME280;5655;48.744;9.162;2023-02-28T03:05:44;96676.84;;;-1.13;100.00
11198;BME280;5655;48.744;9.162;2023-02-28T03:08:11;96674.16;;;-1.32;100.00
11198;BME280;5655;48.744;9.162;2023-02-28T03:10:39;96662.47;;;-0.97;100.00
11198;BME280;5655;48.744;9.162;2023-02-28T03:18:28;96671.13;;;-0.97;100.00
11198;BME280;5655;48.744;9.162;2023-02-28T03:24:18;96683.06;;;-0.85;100.00
11198;BME280;5655;48.744;9.162;2023-02-28T03:26:52;96677.38;;;-0.93;100.00
11198;BME280;5655;48.744;9.162;2023-02-28T03:29:22;96678.41;;;-1.12;100.00
11198;BME280;5655;48.744;9.162;2023-02-28T03:31:57;96672.69;;;-1.19;100.00
11198;BME280;5655;48.744;9.162;2023-02-28T03:34:33;96684.31;;;-0.78;100.00
11198;BME280;5655;48.744;9.162;2023-02-28T03:37:04;96671.91;;;-0.96;100.00
11198;BME280;5655;48.744;9.162;2023-02-28T03:39:35;96675.16;;;-1.04;100.00
11198;BME280;5655;48.744;9.162;2023-02-28T03:42:09;96672.22;;;-0.79;100.00
11198;BME280;5655;48.744;9.162;2023-02-28T03:44:57;96666.13;;;-0.74;100.00
11198;BME280;5655;48.744;9.162;2023-02-28T03:47:32;96670.44;;;-1.07;100.00
11198;BME280;5655;48.744;9.162;2023-02-28T03:50:24;96662.97;;;-0.95;100.00
11198;BME280;5655;48.744;9.162;2023-02-28T03:53:15;96670.38;;;-0.60;100.00
11198;BME280;5655;48.744;9.162;2023-02-28T03:55:48;96665.59;;;-0.53;100.00
11198;BME280;5655;48.744;9.162;2023-02-28T03:58:22;96668.91;;;-0.47;100.00
11198;BME280;5655;48.744;9.162;2023-02-28T04:00:55;96668.09;;;-0.85;100.00
11198;BME280;5655;48.744;9.162;2023-02-28T04:03:22;96672.34;;;-0.89;100.00
11198;BME280;5655;48.744;9.162;2023-02-28T04:05:55;96675.56;;;-0.73;100.00
11198;BME280;5655;48.744;9.162;2023-02-28T04:08:22;96681.91;;;-0.56;100.00
11198;BME280;5655;48.744;9.162;2023-02-28T04:13:39;96673.84;;;-0.83;100.00
11198;BME280;5655;48.744;9.162;2023-02-28T04:16:07;96675.88;;;-0.56;100.00
11198;BME280;5655;48.744;9.162;2023-02-28T04:18:41;96680.97;;;-0.46;100.00
11198;BME280;5655;48.744;9.162;2023-02-28T04:21:08;96673.88;;;-0.64;100.00
11198;BME280;5655;48.744;9.162;2023-02-28T04:23:34;96668.53;;;-0.78;100.00
11198;BME280;5655;48.744;9.162;2023-02-28T04:25:59;96683.03;;;-0.62;100.00
11198;BME280;5655;48.744;9.162;2023-02-28T04:28:26;96675.81;;;-0.94;100.00
11198;BME280;5655;48.744;9.162;2023-02-28T04:30:56;96682.19;;;-0.57;100.00
11198;BME280;5655;48.744;9.162;2023-02-28T04:33:21;96678.84;;;-0.63;100.00
11198;BME280;5655;48.744;9.162;2023-02-28T04:35:46;96680.75;;;-0.87;100.00
11198;BME280;5655;48.744;9.162;2023-02-28T04:38:12;96673.81;;;-0.59;100.00
11198;BME280;5655;48.744;9.162;2023-02-28T04:40:37;96671.81;;;-0.49;100.00
11198;BME280;5655;48.744;9.162;2023-02-28T04:43:02;96667.84;;;-0.27;100.00
11198;BME280;5655;48.744;9.162;2023-02-28T04:45:28;96676.78;;;-0.28;100.00
11198;BME280;5655;48.744;9.162;2023-02-28T04:47:57;96668.25;;;-0.20;100.00
11198;BME280;5655;48.744;9.162;2023-02-28T04:50:22;96670.53;;;-0.14;100.00
11198;BME280;5655;48.744;9.162;2023-02-28T04:52:47;96682.97;;;-0.38;100.00
11198;BME280;5655;48.744;9.162;2023-02-28T04:55:13;96674.81;;;-0.36;100.00
11198;BME280;5655;48.744;9.162;2023-02-28T04:57:38;96662.78;;;-0.24;100.00
11198;BME280;5655;48.744;9.162;2023-02-28T05:00:04;96673.97;;;-0.32;100.00
11198;BME280;5655;48.744;9.162;2023-02-28T05:02:34;96678.72;;;-0.15;100.00
11198;BME280;5655;48.744;9.162;2023-02-28T05:05:00;96680.06;;;-0.36;100.00
11198;BME280;5655;48.744;9.162;2023-02-28T05:07:25;96682.25;;;-0.25;100.00
11198;BME280;5655;48.744;9.162;2023-02-28T05:09:50;96680.34;;;-0.19;100.00
11198;BME280;5655;48.744;9.162;2023-02-28T05:12:16;96679.50;;;-0.33;100.00
11198;BME280;5655;48.744;9.162;2023-02-28T05:14:41;96681.91;;;-0.37;100.00
11198;BME280;5655;48.744;9.162;2023-02-28T05:17:07;96680.19;;;-0.47;100.00
11198;BME280;5655;48.744;9.162;2023-02-28T05:19:33;96678.56;;;-0.42;100.00
11198;BME280;5655;48.744;9.162;2023-02-28T05:21:58;96684.63;;;-0.23;100.00
11198;BME280;5655;48.744;9.162;2023-02-28T05:24:24;96681.41;;;-0.58;100.00
11198;BME280;5655;48.744;9.162;2023-02-28T05:26:50;96680.66;;;-0.39;100.00
11198;BME280;5655;48.744;9.162;2023-02-28T05:29:17;96687.44;;;-0.38;100.00
11198;BME280;5655;48.744;9.162;2023-02-28T05:31:42;96685.16;;;0.11;100.00
11198;BME280;5655;48.744;9.162;2023-02-28T05:34:07;96685.19;;;-0.26;100.00
11198;BME280;5655;48.744;9.162;2023-02-28T05:36:33;96685.28;;;0.01;100.00
11198;BME280;5655;48.744;9.162;2023-02-28T05:38:58;96669.97;;;-0.29;100.00
11198;BME280;5655;48.744;9.162;2023-02-28T05:41:24;96684.63;;;-0.23;100.00
11198;BME280;5655;48.744;9.162;2023-02-28T05:43:51;96685.81;;;-0.16;100.00
11198;BME280;5655;48.744;9.162;2023-02-28T05:46:16;96680.72;;;-0.44;100.00
11198;BME280;5655;48.744;9.162;2023-02-28T05:48:42;96690.16;;;-0.06;100.00
11198;BME280;5655;48.744;9.162;2023-02-28T05:51:10;96694.03;;;-0.04;100.00
11198;BME280;5655;48.744;9.162;2023-02-28T05:53:36;96691.84;;;-0.15;100.00
11198;BME280;5655;48.744;9.162;2023-02-28T05:56:02;96692.53;;;0.09;100.00
11198;BME280;5655;48.744;9.162;2023-02-28T05:58:28;96699.16;;;-0.12;100.00
11198;BME280;5655;48.744;9.162;2023-02-28T06:00:57;96694.41;;;0.09;100.00
11198;BME280;5655;48.744;9.162;2023-02-28T06:03:23;96699.34;;;-0.22;100.00
11198;BME280;5655;48.744;9.162;2023-02-28T06:05:48;96691.28;;;-0.12;100.00
11198;BME280;5655;48.744;9.162;2023-02-28T06:08:13;96701.31;;;-0.33;100.00
11198;BME280;5655;48.744;9.162;2023-02-28T06:10:39;96704.22;;;-0.34;100.00
11198;BME280;5655;48.744;9.162;2023-02-28T06:13:04;96701.97;;;-0.22;100.00
11198;BME280;5655;48.744;9.162;2023-02-28T06:15:30;96698.81;;;-0.62;100.00
11198;BME280;5655;48.744;9.162;2023-02-28T06:17:55;96696.25;;;-0.29;100.00
11198;BME280;5655;48.744;9.162;2023-02-28T06:20:23;96698.31;;;0.11;100.00
11198;BME280;5655;48.744;9.162;2023-02-28T06:22:49;96698.97;;;0.03;100.00
11198;BME280;5655;48.744;9.162;2023-02-28T06:25:16;96706.06;;;-0.16;100.00
11198;BME280;5655;48.744;9.162;2023-02-28T06:27:41;96701.06;;;0.01;100.00
11198;BME280;5655;48.744;9.162;2023-02-28T06:30:07;96715.84;;;0.34;100.00
11198;BME280;5655;48.744;9.162;2023-02-28T06:32:32;96714.03;;;0.16;100.00
11198;BME280;5655;48.744;9.162;2023-02-28T06:34:58;96714.16;;;0.06;100.00
11198;BME280;5655;48.744;9.162;2023-02-28T06:37:23;96727.25;;;0.11;100.00
11198;BME280;5655;48.744;9.162;2023-02-28T06:39:51;96720.63;;;0.14;100.00
11198;BME280;5655;48.744;9.162;2023-02-28T06:42:16;96729.69;;;-0.11;100.00
11198;BME280;5655;48.744;9.162;2023-02-28T06:44:42;96725.41;;;-0.07;100.00
11198;BME280;5655;48.744;9.162;2023-02-28T06:47:08;96720.28;;;0.20;100.00
11198;BME280;5655;48.744;9.162;2023-02-28T06:49:35;96715.06;;;0.34;100.00
11198;BME280;5655;48.744;9.162;2023-02-28T06:52:00;96723.19;;;0.19;100.00
11198;BME280;5655;48.744;9.162;2023-02-28T06:54:26;96726.41;;;-0.03;100.00
11198;BME280;5655;48.744;9.162;2023-02-28T06:56:52;96728.56;;;-0.05;100.00
11198;BME280;5655;48.744;9.162;2023-02-28T06:59:19;96723.91;;;0.06;100.00
11198;BME280;5655;48.744;9.162;2023-02-28T07:01:45;96729.59;;;0.13;100.00
11198;BME280;5655;48.744;9.162;2023-02-28T07:04:10;96729.94;;;0.06;100.00
11198;BME280;5655;48.744;9.162;2023-02-28T07:06:36;96731.38;;;0.17;100.00
11198;BME280;5655;48.744;9.162;2023-02-28T07:09:01;96731.16;;;0.14;100.00
11198;BME280;5655;48.744;9.162;2023-02-28T07:11:27;96736.19;;;0.29;100.00
11198;BME280;5655;48.744;9.162;2023-02-28T07:13:54;96740.13;;;0.45;100.00
11198;BME280;5655;48.744;9.162;2023-02-28T07:16:22;96738.69;;;0.53;100.00
11198;BME280;5655;48.744;9.162;2023-02-28T07:18:48;96746.66;;;0.47;100.00
11198;BME280;5655;48.744;9.162;2023-02-28T07:21:14;96746.31;;;0.54;100.00
11198;BME280;5655;48.744;9.162;2023-02-28T07:23:39;96746.25;;;0.40;100.00
11198;BME280;5655;48.744;9.162;2023-02-28T07:26:06;96741.03;;;0.54;100.00
11198;BME280;5655;48.744;9.162;2023-02-28T07:28:32;96742.56;;;0.41;100.00
11198;BME280;5655;48.744;9.162;2023-02-28T07:31:03;96744.00;;;0.66;100.00
11198;BME280;5655;48.744;9.162;2023-02-28T07:33:29;96738.28;;;0.45;100.00
11198;BME280;5655;48.744;9.162;2023-02-28T07:36:00;96741.91;;;0.82;100.00
11198;BME280;5655;48.744;9.162;2023-02-28T07:38:26;96746.00;;;0.23;100.00
11198;BME280;5655;48.744;9.162;2023-02-28T07:40:51;96745.44;;;0.59;100.00
11198;BME280;5655;48.744;9.162;2023-02-28T07:43:16;96751.59;;;0.03;100.00
11198;BME280;5655;48.744;9.162;2023-02-28T07:45:42;96746.25;;;0.40;100.00
11198;BME280;5655;48.744;9.162;2023-02-28T07:48:07;96750.63;;;0.64;100.00
11198;BME280;5655;48.744;9.162;2023-02-28T07:50:35;96750.03;;;0.67;100.00
11198;BME280;5655;48.744;9.162;2023-02-28T07:53:00;96756.88;;;0.68;100.00
11198;BME280;5655;48.744;9.162;2023-02-28T07:55:26;96760.59;;;0.67;100.00
11198;BME280;5655;48.744;9.162;2023-02-28T07:57:51;96752.00;;;0.75;100.00
11198;BME280;5655;48.744;9.162;2023-02-28T08:00:17;96759.59;;;0.63;100.00
11198;BME280;5655;48.744;9.162;2023-02-28T08:02:42;96752.97;;;0.65;100.00
11198;BME280;5655;48.744;9.162;2023-02-28T08:05:08;96759.66;;;0.90;100.00
11198;BME280;5655;48.744;9.162;2023-02-28T08:07:33;96764.88;;;0.63;100.00
11198;BME280;5655;48.744;9.162;2023-02-28T08:09:59;96762.59;;;0.88;100.00
11198;BME280;5655;48.744;9.162;2023-02-28T08:12:24;96769.22;;;0.86;100.00
11198;BME280;5655;48.744;9.162;2023-02-28T08:14:49;96771.50;;;0.74;100.00
11198;BME280;5655;48.744;9.162;2023-02-28T08:17:15;96762.75;;;0.78;100.00
11198;BME280;5655;48.744;9.162;2023-02-28T08:19:40;96761.53;;;0.57;100.00
11198;BME280;5655;48.744;9.162;2023-02-28T08:22:05;96770.53;;;0.70;100.00
11198;BME280;5655;48.744;9.162;2023-02-28T08:24:31;96758.97;;;0.84;100.00
11198;BME280;5655;48.744;9.162;2023-02-28T08:26:56;96763.63;;;0.41;100.00
11198;BME280;5655;48.744;9.162;2023-02-28T08:29:22;96764.00;;;0.67;100.00
11198;BME280;5655;48.744;9.162;2023-02-28T08:31:47;96765.50;;;0.87;100.00
11198;BME280;5655;48.744;9.162;2023-02-28T08:34:14;96760.94;;;1.06;100.00
11198;BME280;5655;48.744;9.162;2023-02-28T08:36:40;96771.34;;;0.84;100.00
11198;BME280;5655;48.744;9.162;2023-02-28T08:39:06;96774.31;;;1.10;100.00
11198;BME280;5655;48.744;9.162;2023-02-28T08:41:32;96768.25;;;0.96;100.00
11198;BME280;5655;48.744;9.162;2023-02-28T08:43:57;96774.28;;;0.96;100.00
11198;BME280;5655;48.744;9.162;2023-02-28T08:46:23;96765.94;;;1.08;100.00
11198;BME280;5655;48.744;9.162;2023-02-28T08:48:53;96766.91;;;1.12;100.00
11198;BME280;5655;48.744;9.162;2023-02-28T08:51:20;96769.72;;;1.02;100.00
11198;BME280;5655;48.744;9.162;2023-02-28T08:53:52;96774.09;;;0.93;100.00
11198;BME280;5655;48.744;9.162;2023-02-28T08:56:18;96771.50;;;1.20;100.00
11198;BME280;5655;48.744;9.162;2023-02-28T08:58:45;96776.47;;;1.21;100.00
11198;BME280;5655;48.744;9.162;2023-02-28T09:01:18;96780.59;;;1.27;100.00
11198;BME280;5655;48.744;9.162;2023-02-28T09:03:44;96780.75;;;1.17;100.00
11198;BME280;5655;48.744;9.162;2023-02-28T09:06:11;96782.50;;;1.08;100.00
11198;BME280;5655;48.744;9.162;2023-02-28T09:08:36;96784.75;;;1.01;100.00
11198;BME280;5655;48.744;9.162;2023-02-28T09:11:02;96791.72;;;0.78;100.00
11198;BME280;5655;48.744;9.162;2023-02-28T09:13:29;96784.50;;;1.16;100.00
11198;BME280;5655;48.744;9.162;2023-02-28T09:16:01;96785.69;;;1.38;100.00
11198;BME280;5655;48.744;9.162;2023-02-28T09:18:27;96782.91;;;1.43;100.00
11198;BME280;5655;48.744;9.162;2023-02-28T09:20:52;96785.00;;;1.46;100.00
11198;BME280;5655;48.744;9.162;2023-02-28T09:23:18;96789.19;;;1.47;100.00
11198;BME280;5655;48.744;9.162;2023-02-28T09:25:49;96783.72;;;1.57;100.00
11198;BME280;5655;48.744;9.162;2023-02-28T09:28:16;96792.38;;;1.30;100.00
11198;BME280;5655;48.744;9.162;2023-02-28T09:30:44;96795.63;;;1.54;100.00
11198;BME280;5655;48.744;9.162;2023-02-28T09:33:10;96791.84;;;1.47;100.00
11198;BME280;5655;48.744;9.162;2023-02-28T09:35:36;96798.56;;;1.53;100.00
11198;BME280;5655;48.744;9.162;2023-02-28T09:38:02;96795.63;;;1.68;100.00
11198;BME280;5655;48.744;9.162;2023-02-28T09:40:29;96795.41;;;1.64;100.00
11198;BME280;5655;48.744;9.162;2023-02-28T09:42:57;96800.13;;;1.81;100.00
11198;BME280;5655;48.744;9.162;2023-02-28T09:45:30;96799.72;;;1.88;100.00
11198;BME280;5655;48.744;9.162;2023-02-28T09:48:00;96801.78;;;1.50;100.00
11198;BME280;5655;48.744;9.162;2023-02-28T09:50:40;96803.47;;;1.59;100.00
11198;BME280;5655;48.744;9.162;2023-02-28T09:53:34;96809.09;;;1.80;100.00
11198;BME280;5655;48.744;9.162;2023-02-28T09:56:10;96807.91;;;1.86;100.00
11198;BME280;5655;48.744;9.162;2023-02-28T10:09:49;96804.75;;;2.11;100.00
11198;BME280;5655;48.744;9.162;2023-02-28T10:12:17;96810.88;;;1.44;100.00
11198;BME280;5655;48.744;9.162;2023-02-28T10:14:46;96815.34;;;1.84;100.00
11198;BME280;5655;48.744;9.162;2023-02-28T10:17:14;96820.44;;;1.94;100.00
11198;BME280;5655;48.744;9.162;2023-02-28T10:22:20;96825.63;;;2.57;100.00
11198;BME280;5655;48.744;9.162;2023-02-28T10:24:52;96836.59;;;2.28;100.00
11198;BME280;5655;48.744;9.162;2023-02-28T10:27:23;96837.03;;;1.95;100.00
11198;BME280;5655;48.744;9.162;2023-02-28T10:29:54;96833.69;;;2.52;100.00
11198;BME280;5655;48.744;9.162;2023-02-28T10:32:23;96831.06;;;2.39;100.00
11198;BME280;5655;48.744;9.162;2023-02-28T10:34:56;96828.69;;;2.51;100.00
11198;BME280;5655;48.744;9.162;2023-02-28T10:37:22;96836.13;;;2.49;100.00
11198;BME280;5655;48.744;9.162;2023-02-28T10:39:48;96832.97;;;2.60;100.00
11198;BME280;5655;48.744;9.162;2023-02-28T10:42:27;96822.72;;;2.59;100.00
11198;BME280;5655;48.744;9.162;2023-02-28T10:45:10;96820.53;;;2.83;100.00
11198;BME280;5655;48.744;9.162;2023-02-28T10:55:41;96825.09;;;2.69;100.00
11198;BME280;5655;48.744;9.162;2023-02-28T10:59:22;96831.75;;;3.42;100.00
11198;BME280;5655;48.744;9.162;2023-02-28T11:03:42;96822.34;;;3.27;100.00
11198;BME280;5655;48.744;9.162;2023-02-28T11:06:29;96825.72;;;3.58;100.00
11198;BME280;5655;48.744;9.162;2023-02-28T11:09:04;96818.59;;;3.67;100.00
11198;BME280;5655;48.744;9.162;2023-02-28T11:11:44;96822.47;;;3.53;100.00
11198;BME280;5655;48.744;9.162;2023-02-28T11:14:27;96821.59;;;3.35;100.00
11198;BME280;5655;48.744;9.162;2023-02-28T11:16:54;96817.44;;;3.12;100.00
11198;BME280;5655;48.744;9.162;2023-02-28T11:19:25;96815.47;;;2.95;100.00
11198;BME280;5655;48.744;9.162;2023-02-28T11:21:55;96809.47;;;3.82;100.00
11198;BME280;5655;48.744;9.162;2023-02-28T11:24:23;96808.63;;;2.72;100.00
11198;BME280;5655;48.744;9.162;2023-02-28T11:26:50;96815.78;;;3.64;100.00
11198;BME280;5655;48.744;9.162;2023-02-28T11:29:19;96811.03;;;3.83;100.00
11198;BME280;5655;48.744;9.162;2023-02-28T11:32:05;96813.38;;;3.85;100.00
11198;BME280;5655;48.744;9.162;2023-02-28T11:34:36;96819.34;;;4.16;100.00
11198;BME280;5655;48.744;9.162;2023-02-28T11:37:04;96808.16;;;4.45;100.00
11198;BME280;5655;48.744;9.162;2023-02-28T11:39:31;96809.06;;;4.83;100.00
11198;BME280;5655;48.744;9.162;2023-02-28T11:44:47;96800.38;;;5.67;100.00
11198;BME280;5655;48.744;9.162;2023-02-28T11:56:08;96797.63;;;7.09;97.33
11198;BME280;5655;48.744;9.162;2023-02-28T12:02:12;96793.72;;;7.75;87.84
11198;BME280;5655;48.744;9.162;2023-02-28T12:04:53;96786.28;;;7.57;86.35
11198;BME280;5655;48.744;9.162;2023-02-28T12:07:31;96796.81;;;7.41;86.63
11198;BME280;5655;48.744;9.162;2023-02-28T12:10:30;96789.47;;;7.38;94.40
11198;BME280;5655;48.744;9.162;2023-02-28T12:21:50;96780.16;;;8.05;84.76
11198;BME280;5655;48.744;9.162;2023-02-28T12:27:19;96784.53;;;8.49;86.04
11198;BME280;5655;48.744;9.162;2023-02-28T12:30:00;96785.00;;;8.39;79.88
11198;BME280;5655;48.744;9.162;2023-02-28T12:32:39;96775.50;;;8.82;74.13
11198;BME280;5655;48.744;9.162;2023-02-28T12:35:13;96769.47;;;8.85;73.07
11198;BME280;5655;48.744;9.162;2023-02-28T12:37:47;96764.78;;;8.26;70.72
11198;BME280;5655;48.744;9.162;2023-02-28T12:40:21;96771.66;;;8.95;72.48
11198;BME280;5655;48.744;9.162;2023-02-28T12:42:49;96760.91;;;9.07;73.01
11198;BME280;5655;48.744;9.162;2023-02-28T12:45:20;96760.47;;;8.61;69.36
11198;BME280;5655;48.744;9.162;2023-02-28T12:47:58;96762.44;;;9.36;70.85
11198;BME280;5655;48.744;9.162;2023-02-28T12:50:26;96759.66;;;9.48;69.33
11198;BME280;5655;48.744;9.162;2023-02-28T12:53:15;96763.81;;;9.61;66.68
11198;BME280;5655;48.744;9.162;2023-02-28T12:55:48;96764.13;;;8.17;67.64
11198;BME280;5655;48.744;9.162;2023-02-28T12:58:23;96763.84;;;9.02;69.93
11198;BME280;5655;48.744;9.162;2023-02-28T13:09:13;96748.78;;;9.41;64.80
11198;BME280;5655;48.744;9.162;2023-02-28T13:11:53;96747.16;;;9.36;64.41
11198;BME280;5655;48.744;9.162;2023-02-28T13:19:40;96748.63;;;9.65;66.76
11198;BME280;5655;48.744;9.162;2023-02-28T13:22:17;96750.53;;;9.65;64.66
11198;BME280;5655;48.744;9.162;2023-02-28T13:24:51;96748.63;;;9.34;64.54
11198;BME280;5655;48.744;9.162;2023-02-28T13:27:38;96740.94;;;9.01;65.68
11198;BME280;5655;48.744;9.162;2023-02-28T13:33:35;96745.41;;;9.91;62.90
11198;BME280;5655;48.744;9.162;2023-02-28T13:36:23;96738.47;;;9.39;64.16
11198;BME280;5655;48.744;9.162;2023-02-28T13:38:57;96749.81;;;9.21;64.13
11198;BME280;5655;48.744;9.162;2023-02-28T13:46:27;96749.13;;;8.64;67.72
11198;BME280;5655;48.744;9.162;2023-02-28T13:48:52;96743.94;;;8.84;65.84
11198;BME280;5655;48.744;9.162;2023-02-28T13:54:45;96743.44;;;9.09;65.52
11198;BME280;5655;48.744;9.162;2023-02-28T14:05:18;96736.28;;;8.98;66.07
11198;BME280;5655;48.744;9.162;2023-02-28T14:07:52;96751.41;;;8.78;67.15
11198;BME280;5655;48.744;9.162;2023-02-28T14:10:33;96750.78;;;8.69;67.50
11198;BME280;5655;48.744;9.162;2023-02-28T14:13:36;96746.06;;;8.78;64.93
11198;BME280;5655;48.744;9.162;2023-02-28T14:16:01;96738.28;;;8.57;66.56
11198;BME280;5655;48.744;9.162;2023-02-28T14:18:31;96742.72;;;8.53;67.56
11198;BME280;5655;48.744;9.162;2023-02-28T14:21:01;96749.06;;;8.77;67.55
11198;BME280;5655;48.744;9.162;2023-02-28T14:23:41;96738.56;;;8.28;67.03
11198;BME280;5655;48.744;9.162;2023-02-28T14:26:35;96745.19;;;7.94;71.28
11198;BME280;5655;48.744;9.162;2023-02-28T14:32:05;96746.66;;;7.67;73.75
11198;BME280;5655;48.744;9.162;2023-02-28T14:34:57;96743.13;;;7.63;75.83
11198;BME280;5655;48.744;9.162;2023-02-28T14:37:31;96746.22;;;7.65;74.39
11198;BME280;5655;48.744;9.162;2023-02-28T14:39:59;96741.97;;;7.89;73.80
11198;BME280;5655;48.744;9.162;2023-02-28T14:42:33;96740.41;;;8.00;75.19
11198;BME280;5655;48.744;9.162;2023-02-28T14:45:00;96743.75;;;7.97;73.99
11198;BME280;5655;48.744;9.162;2023-02-28T14:47:31;96743.06;;;8.00;72.96
11198;BME280;5655;48.744;9.162;2023-02-28T14:49:59;96744.66;;;7.89;76.16
11198;BME280;5655;48.744;9.162;2023-02-28T14:52:31;96750.19;;;7.96;73.78
11198;BME280;5655;48.744;9.162;2023-02-28T14:55:04;96750.63;;;7.86;77.66
11198;BME280;5655;48.744;9.162;2023-02-28T14:57:40;96746.66;;;7.55;75.89
11198;BME280;5655;48.744;9.162;2023-02-28T15:02:38;96757.91;;;7.04;83.23
11198;BME280;5655;48.744;9.162;2023-02-28T15:07:42;96760.63;;;7.16;84.47
11198;BME280;5655;48.744;9.162;2023-02-28T15:10:18;96759.94;;;7.19;87.37
11198;BME280;5655;48.744;9.162;2023-02-28T15:15:22;96758.19;;;7.35;82.93
11198;BME280;5655;48.744;9.162;2023-02-28T15:17:52;96756.81;;;7.17;88.38
11198;BME280;5655;48.744;9.162;2023-02-28T15:20:19;96761.06;;;7.30;83.40
11198;BME280;5655;48.744;9.162;2023-02-28T15:22:47;96769.72;;;7.39;83.44
11198;BME280;5655;48.744;9.162;2023-02-28T15:25:18;96761.06;;;7.30;87.28